createdAt,value
2022-11-17T00:00:16.961Z,9.76
2022-11-17T00:01:16.963Z,9.79
2022-11-17T00:02:16.941Z,9.81
2022-11-17T00:03:16.902Z,9.79
2022-11-17T00:04:16.909Z,9.76
2022-11-17T00:05:16.875Z,9.74
2022-11-17T00:06:16.880Z,9.72
2022-11-17T00:07:16.916Z,9.71
2022-11-17T00:08:16.827Z,9.69
2022-11-17T00:09:16.823Z,9.57
2022-11-17T00:10:16.824Z,9.56
2022-11-17T00:11:16.846Z,9.57
2022-11-17T00:12:22.082Z,9.58
2022-11-17T00:13:16.772Z,9.58
2022-11-17T00:14:16.757Z,9.57
2022-11-17T00:15:16.765Z,9.56
2022-11-17T00:16:16.756Z,9.57
2022-11-17T00:17:16.740Z,9.56
2022-11-17T00:18:16.709Z,9.54
2022-11-17T00:19:16.694Z,9.53
2022-11-17T00:20:16.679Z,9.53
2022-11-17T00:21:16.689Z,9.51
2022-11-17T00:22:16.660Z,9.47
2022-11-17T00:23:16.635Z,9.39
2022-11-17T00:24:16.636Z,9.38
2022-11-17T00:25:16.617Z,9.33
2022-11-17T00:26:16.611Z,9.29
2022-11-17T00:27:16.607Z,9.26
2022-11-17T00:28:16.569Z,9.24
2022-11-17T00:29:16.556Z,9.26
2022-11-17T00:30:16.547Z,9.24
2022-11-17T00:31:16.564Z,9.23
2022-11-17T00:32:16.541Z,9.24
2022-11-17T00:33:16.506Z,9.24
2022-11-17T00:34:16.509Z,9.26
2022-11-17T00:35:16.482Z,9.28
2022-11-17T00:36:16.463Z,9.29
2022-11-17T00:37:16.458Z,9.26
2022-11-17T00:38:16.486Z,9.26
2022-11-17T00:39:16.444Z,9.31
2022-11-17T00:40:16.421Z,9.33
2022-11-17T00:41:16.402Z,9.36
2022-11-17T00:42:16.408Z,9.39
2022-11-17T00:43:16.389Z,9.40
2022-11-17T00:44:16.367Z,9.40
2022-11-17T00:45:16.369Z,9.42
2022-11-17T00:46:16.341Z,9.42
2022-11-17T00:47:16.328Z,9.46
2022-11-17T00:48:16.313Z,9.46
2022-11-17T00:49:16.319Z,9.43
2022-11-17T00:50:16.277Z,9.46
2022-11-17T00:51:16.317Z,9.43
2022-11-17T00:52:16.265Z,9.39
2022-11-17T00:53:16.266Z,9.36
2022-11-17T00:54:16.246Z,9.38
2022-11-17T00:55:16.306Z,9.38
2022-11-17T00:56:16.236Z,9.39
2022-11-17T00:57:16.194Z,9.42
2022-11-17T00:58:16.185Z,9.42
2022-11-17T00:59:16.186Z,9.43
2022-11-17T01:00:16.150Z,9.46
2022-11-17T01:01:16.200Z,9.47
2022-11-17T01:02:16.132Z,9.50
2022-11-17T01:03:16.111Z,9.53
2022-11-17T01:04:16.124Z,9.51
2022-11-17T01:05:16.091Z,9.53
2022-11-17T01:06:16.077Z,9.47
2022-11-17T01:07:16.099Z,9.46
2022-11-17T01:08:16.057Z,9.43
2022-11-17T01:09:16.077Z,9.46
2022-11-17T01:10:16.037Z,9.47
2022-11-17T01:11:16.020Z,9.47
2022-11-17T01:12:15.988Z,9.47
2022-11-17T01:13:15.999Z,9.47
2022-11-17T01:14:16.000Z,9.50
2022-11-17T01:15:15.988Z,9.50
2022-11-17T01:16:15.946Z,9.51
2022-11-17T01:17:15.960Z,9.53
2022-11-17T01:18:15.915Z,9.56
2022-11-17T01:19:15.909Z,9.54
2022-11-17T01:20:15.893Z,9.51
2022-11-17T01:21:15.889Z,9.48
2022-11-17T01:22:15.901Z,9.48
2022-11-17T01:23:15.851Z,9.48
2022-11-17T01:24:15.829Z,9.50
2022-11-17T01:25:15.831Z,9.48
2022-11-17T01:26:15.807Z,9.48
2022-11-17T01:27:15.808Z,9.50
2022-11-17T01:28:15.808Z,9.51
2022-11-17T01:29:15.783Z,9.53
2022-11-17T01:30:15.796Z,9.53
2022-11-17T01:31:15.743Z,9.54
2022-11-17T01:32:15.739Z,9.56
2022-11-17T01:33:15.731Z,9.56
2022-11-17T01:34:15.708Z,9.57
2022-11-17T01:35:15.748Z,9.57
2022-11-17T01:36:15.670Z,9.60
2022-11-17T01:37:15.682Z,9.58
2022-11-17T01:38:15.638Z,9.58
2022-11-17T01:39:15.652Z,9.58
2022-11-17T01:40:15.666Z,9.61
2022-11-17T01:41:15.612Z,9.61
2022-11-17T01:42:15.610Z,9.60
2022-11-17T01:43:15.581Z,9.61
2022-11-17T01:44:15.577Z,9.58
2022-11-17T01:45:15.616Z,9.57
2022-11-17T01:46:15.555Z,9.56
2022-11-17T01:47:15.566Z,9.57
2022-11-17T01:48:15.525Z,9.56
2022-11-17T01:49:15.530Z,9.54
2022-11-17T01:50:15.530Z,9.54
2022-11-17T01:51:15.496Z,9.54
2022-11-17T01:52:15.502Z,9.51
2022-11-17T01:53:15.459Z,9.50
2022-11-17T01:54:15.436Z,9.50
2022-11-17T01:55:15.471Z,9.47
2022-11-17T01:56:15.429Z,9.48
2022-11-17T01:57:15.449Z,9.48
2022-11-17T01:58:15.409Z,9.47
2022-11-17T01:59:15.382Z,9.47
2022-11-17T02:00:15.390Z,9.48
2022-11-17T02:01:15.412Z,9.43
2022-11-17T02:02:15.355Z,9.43
2022-11-17T02:03:15.396Z,9.42
2022-11-17T02:04:15.339Z,9.46
2022-11-17T02:05:15.320Z,9.42
2022-11-17T02:06:15.306Z,9.42
2022-11-17T02:07:15.360Z,9.43
2022-11-17T02:08:15.324Z,9.39
2022-11-17T02:09:15.242Z,9.38
2022-11-17T02:10:15.225Z,9.38
2022-11-17T02:11:15.224Z,9.36
2022-11-17T02:12:15.207Z,9.38
2022-11-17T02:13:15.216Z,9.38
2022-11-17T02:14:15.234Z,9.38
2022-11-17T02:15:15.153Z,9.38
2022-11-17T02:16:15.163Z,9.39
2022-11-17T02:17:15.139Z,9.43
2022-11-17T02:18:15.126Z,9.46
2022-11-17T02:19:15.135Z,9.46
2022-11-17T02:20:15.101Z,9.47
2022-11-17T02:21:15.107Z,9.53
2022-11-17T02:22:15.082Z,9.56
2022-11-17T02:23:15.074Z,9.58
2022-11-17T02:24:15.037Z,9.58
2022-11-17T02:25:15.055Z,9.58
2022-11-17T02:26:15.022Z,9.58
2022-11-17T02:27:15.003Z,9.60
2022-11-17T02:28:15.007Z,9.58
2022-11-17T02:29:15.000Z,9.60
2022-11-17T02:30:14.972Z,9.61
2022-11-17T02:31:14.954Z,9.61
2022-11-17T02:32:14.945Z,9.64
2022-11-17T02:33:14.947Z,9.64
2022-11-17T02:34:14.915Z,9.64
2022-11-17T02:35:14.907Z,9.61
2022-11-17T02:36:14.879Z,9.64
2022-11-17T02:37:14.874Z,9.61
2022-11-17T02:38:14.885Z,9.64
2022-11-17T02:39:14.848Z,9.64
2022-11-17T02:40:14.865Z,9.64
2022-11-17T02:41:14.822Z,9.61
2022-11-17T02:42:14.805Z,9.61
2022-11-17T02:43:14.799Z,9.64
2022-11-17T02:44:14.789Z,9.64
2022-11-17T02:45:14.789Z,9.65
2022-11-17T02:46:14.760Z,9.66
2022-11-17T02:47:15.702Z,9.66
2022-11-17T02:48:14.737Z,9.66
2022-11-17T02:49:14.734Z,9.65
2022-11-17T02:50:14.700Z,9.65
2022-11-17T02:51:14.682Z,9.68
2022-11-17T02:52:14.671Z,9.69
2022-11-17T02:53:14.679Z,9.71
2022-11-17T02:54:14.651Z,9.72
2022-11-17T02:55:14.636Z,9.72
2022-11-17T02:56:14.624Z,9.75
2022-11-17T02:57:14.604Z,9.76
2022-11-17T02:58:14.638Z,9.74
2022-11-17T02:59:14.585Z,9.74
2022-11-17T03:00:14.590Z,9.74
2022-11-17T03:01:14.637Z,9.75
2022-11-17T03:02:14.559Z,9.76
2022-11-17T03:03:14.543Z,9.79
2022-11-17T03:04:14.547Z,9.79
2022-11-17T03:05:14.509Z,9.78
2022-11-17T03:06:14.491Z,9.79
2022-11-17T03:07:14.513Z,9.78
2022-11-17T03:08:14.477Z,9.79
2022-11-17T03:09:14.483Z,9.79
2022-11-17T03:10:14.455Z,9.81
2022-11-17T03:11:14.420Z,9.83
2022-11-17T03:12:14.416Z,9.86
2022-11-17T03:13:14.421Z,9.87
2022-11-17T03:14:14.418Z,9.90
2022-11-17T03:15:14.470Z,9.90
2022-11-17T03:16:14.364Z,9.91
2022-11-17T03:17:14.339Z,9.91
2022-11-17T03:18:14.337Z,9.90
2022-11-17T03:19:14.332Z,9.90
2022-11-17T03:20:14.313Z,9.89
2022-11-17T03:21:14.309Z,9.90
2022-11-17T03:22:14.281Z,9.91
2022-11-17T03:23:14.310Z,9.93
2022-11-17T03:24:14.257Z,9.96
2022-11-17T03:25:14.246Z,9.97
2022-11-17T03:26:14.254Z,9.97
2022-11-17T03:27:14.206Z,9.96
2022-11-17T03:28:14.213Z,9.93
2022-11-17T03:29:14.201Z,9.89
2022-11-17T03:30:14.201Z,9.87
2022-11-17T03:31:14.173Z,9.86
2022-11-17T03:32:14.166Z,9.84
2022-11-17T03:33:14.128Z,9.86
2022-11-17T03:34:14.137Z,9.89
2022-11-17T03:35:14.139Z,9.90
2022-11-17T03:36:14.107Z,9.91
2022-11-17T03:37:14.081Z,9.90
2022-11-17T03:38:14.085Z,9.91
2022-11-17T03:39:14.049Z,9.89
2022-11-17T03:40:14.053Z,9.86
2022-11-17T03:41:14.059Z,9.86
2022-11-17T03:42:14.017Z,9.84
2022-11-17T03:43:14.005Z,9.84
2022-11-17T03:44:13.999Z,9.86
2022-11-17T03:45:13.978Z,9.84
2022-11-17T03:46:13.983Z,9.86
2022-11-17T03:47:13.955Z,9.87
2022-11-17T03:48:13.967Z,9.87
2022-11-17T03:49:13.931Z,9.87
2022-11-17T03:50:13.918Z,9.89
2022-11-17T03:51:13.932Z,9.91
2022-11-17T03:52:13.907Z,9.90
2022-11-17T03:53:13.871Z,9.93
2022-11-17T03:54:13.884Z,9.91
2022-11-17T03:55:13.850Z,9.93
2022-11-17T03:56:13.828Z,9.91
2022-11-17T03:57:13.826Z,9.91
2022-11-17T03:58:13.835Z,9.90
2022-11-17T03:59:13.805Z,9.94
2022-11-17T04:00:13.799Z,9.97
2022-11-17T04:01:13.816Z,10.02
2022-11-17T04:02:13.780Z,10.05
2022-11-17T04:03:13.736Z,10.05
2022-11-17T04:04:13.724Z,10.09
2022-11-17T04:05:13.709Z,10.09
2022-11-17T04:06:13.710Z,10.12
2022-11-17T04:07:13.769Z,10.12
2022-11-17T04:08:13.674Z,10.12
2022-11-17T04:09:13.653Z,10.14
2022-11-17T04:10:13.649Z,10.14
2022-11-17T04:11:13.647Z,10.15
2022-11-17T04:12:13.645Z,10.15
2022-11-17T04:13:13.622Z,10.14
2022-11-17T04:14:13.623Z,10.15
2022-11-17T04:15:13.585Z,10.15
2022-11-17T04:16:13.596Z,10.15
2022-11-17T04:17:13.552Z,10.15
2022-11-17T04:18:13.560Z,10.15
2022-11-17T04:19:13.532Z,10.15
2022-11-17T04:20:13.536Z,10.15
2022-11-17T04:21:13.528Z,10.15
2022-11-17T04:22:13.504Z,10.14
2022-11-17T04:23:13.468Z,10.15
2022-11-17T04:24:13.465Z,10.14
2022-11-17T04:25:13.484Z,10.15
2022-11-17T04:26:13.453Z,10.15
2022-11-17T04:27:13.424Z,10.17
2022-11-17T04:28:13.424Z,10.18
2022-11-17T04:29:13.398Z,10.22
2022-11-17T04:30:13.400Z,10.22
2022-11-17T04:31:13.387Z,10.23
2022-11-17T04:32:13.374Z,10.27
2022-11-17T04:33:13.340Z,10.29
2022-11-17T04:34:13.346Z,10.32
2022-11-17T04:35:13.321Z,10.34
2022-11-17T04:36:13.304Z,10.38
2022-11-17T04:37:13.317Z,10.42
2022-11-17T04:38:13.283Z,10.44
2022-11-17T04:39:13.266Z,10.47
2022-11-17T04:40:13.261Z,10.52
2022-11-17T04:41:13.236Z,10.60
2022-11-17T04:42:13.252Z,10.63
2022-11-17T04:43:13.222Z,10.64
2022-11-17T04:44:13.201Z,10.67
2022-11-17T04:45:13.184Z,10.71
2022-11-17T04:46:13.188Z,10.76
2022-11-17T04:47:13.211Z,10.78
2022-11-17T04:48:13.151Z,10.78
2022-11-17T04:49:13.128Z,10.81
2022-11-17T04:50:13.138Z,10.81
2022-11-17T04:51:13.128Z,10.85
2022-11-17T04:52:13.145Z,10.85
2022-11-17T04:53:13.117Z,10.86
2022-11-17T04:54:13.073Z,10.86
2022-11-17T04:55:13.053Z,10.88
2022-11-17T04:56:13.032Z,10.89
2022-11-17T04:57:13.048Z,10.89
2022-11-17T04:58:13.052Z,10.91
2022-11-17T04:59:13.036Z,10.89
2022-11-17T05:00:13.004Z,10.92
2022-11-17T05:01:12.975Z,10.91
2022-11-17T05:02:13.079Z,10.91
2022-11-17T05:03:12.951Z,10.91
2022-11-17T05:04:12.961Z,10.91
2022-11-17T05:05:12.938Z,10.92
2022-11-17T05:06:12.915Z,10.94
2022-11-17T05:07:12.975Z,10.94
2022-11-17T05:08:12.892Z,10.96
2022-11-17T05:09:12.896Z,10.96
2022-11-17T05:10:12.880Z,10.99
2022-11-17T05:11:12.970Z,10.97
2022-11-17T05:12:12.836Z,10.97
2022-11-17T05:13:12.844Z,10.99
2022-11-17T05:14:12.836Z,10.99
2022-11-17T05:15:12.815Z,10.99
2022-11-17T05:16:12.836Z,11.00
2022-11-17T05:17:12.792Z,11.00
2022-11-17T05:18:12.772Z,10.99
2022-11-17T05:19:12.746Z,10.99
2022-11-17T05:20:12.764Z,10.99
2022-11-17T05:21:12.713Z,11.00
2022-11-17T05:22:12.710Z,11.00
2022-11-17T05:23:12.697Z,11.02
2022-11-17T05:24:12.678Z,11.02
2022-11-17T05:25:12.710Z,11.03
2022-11-17T05:26:12.648Z,11.02
2022-11-17T05:27:12.632Z,11.00
2022-11-17T05:28:12.640Z,11.02
2022-11-17T05:29:12.607Z,11.02
2022-11-17T05:30:12.619Z,11.00
2022-11-17T05:31:12.597Z,11.02
2022-11-17T05:32:12.599Z,11.02
2022-11-17T05:33:12.552Z,11.02
2022-11-17T05:34:12.549Z,11.02
2022-11-17T05:35:12.551Z,11.02
2022-11-17T05:36:12.536Z,11.00
2022-11-17T05:37:12.509Z,11.00
2022-11-17T05:38:12.503Z,11.00
2022-11-17T05:39:12.497Z,11.02
2022-11-17T05:40:12.456Z,11.02
2022-11-17T05:41:12.460Z,10.99
2022-11-17T05:42:12.436Z,10.99
2022-11-17T05:43:12.454Z,11.00
2022-11-17T05:44:12.404Z,11.00
2022-11-17T05:45:12.405Z,11.02
2022-11-17T05:46:12.412Z,11.03
2022-11-17T05:47:12.397Z,11.04
2022-11-17T05:48:12.368Z,11.06
2022-11-17T05:49:12.361Z,11.06
2022-11-17T05:50:12.365Z,11.06
2022-11-17T05:51:12.337Z,11.07
2022-11-17T05:52:12.309Z,11.07
2022-11-17T05:53:12.333Z,11.07
2022-11-17T05:54:12.307Z,11.09
2022-11-17T05:55:12.271Z,11.07
2022-11-17T05:56:12.265Z,11.09
2022-11-17T05:57:12.238Z,11.09
2022-11-17T05:58:12.305Z,11.10
2022-11-17T05:59:12.230Z,11.10
2022-11-17T06:00:12.238Z,11.11
2022-11-17T06:01:12.214Z,11.10
2022-11-17T06:02:12.190Z,11.14
2022-11-17T06:03:12.162Z,11.14
2022-11-17T06:04:12.202Z,11.15
2022-11-17T06:05:17.014Z,11.15
2022-11-17T06:06:12.137Z,11.18
2022-11-17T06:07:12.162Z,11.21
2022-11-17T06:08:12.094Z,11.21
2022-11-17T06:09:12.075Z,11.22
2022-11-17T06:10:12.080Z,11.22
2022-11-17T06:11:12.064Z,11.22
2022-11-17T06:12:12.039Z,11.24
2022-11-17T06:13:12.047Z,11.27
2022-11-17T06:14:12.010Z,11.27
2022-11-17T06:15:12.033Z,11.25
2022-11-17T06:16:11.988Z,11.27
2022-11-17T06:17:12.803Z,11.28
2022-11-17T06:18:11.960Z,11.28
2022-11-17T06:19:11.942Z,11.27
2022-11-17T06:20:11.958Z,11.28
2022-11-17T06:21:13.941Z,11.27
2022-11-17T06:22:13.385Z,11.27
2022-11-17T06:23:11.910Z,11.28
2022-11-17T06:24:11.881Z,11.27
2022-11-17T06:25:11.908Z,11.28
2022-11-17T06:26:11.885Z,11.27
2022-11-17T06:27:11.878Z,11.28
2022-11-17T06:28:11.816Z,11.29
2022-11-17T06:29:11.815Z,11.32
2022-11-17T06:30:11.813Z,11.32
2022-11-17T06:31:11.809Z,11.32
2022-11-17T06:32:11.774Z,11.33
2022-11-17T06:33:11.758Z,11.33
2022-11-17T06:34:11.744Z,11.36
2022-11-17T06:35:11.731Z,11.36
2022-11-17T06:36:11.745Z,11.36
2022-11-17T06:37:11.725Z,11.36
2022-11-17T06:38:11.693Z,11.36
2022-11-17T06:39:11.701Z,11.36
2022-11-17T06:40:11.668Z,11.36
2022-11-17T06:41:12.274Z,11.36
2022-11-17T06:42:11.650Z,11.37
2022-11-17T06:43:11.633Z,11.37
2022-11-17T06:44:11.622Z,11.36
2022-11-17T06:45:11.626Z,11.37
2022-11-17T06:46:11.596Z,11.37
2022-11-17T06:47:11.621Z,11.36
2022-11-17T06:48:11.588Z,11.36
2022-11-17T06:49:11.556Z,11.35
2022-11-17T06:50:11.545Z,11.36
2022-11-17T06:51:11.534Z,11.36
2022-11-17T06:52:11.510Z,11.36
2022-11-17T06:53:11.543Z,11.37
2022-11-17T06:54:11.560Z,11.39
2022-11-17T06:55:11.530Z,11.37
2022-11-17T06:56:11.485Z,11.39
2022-11-17T06:57:11.508Z,11.40
2022-11-17T06:58:11.486Z,11.42
2022-11-17T06:59:11.482Z,11.42
2022-11-17T07:00:11.428Z,11.44
2022-11-17T07:01:11.500Z,11.44
2022-11-17T07:02:11.425Z,11.46
2022-11-17T07:03:11.410Z,11.46
2022-11-17T07:04:11.378Z,11.46
2022-11-17T07:05:11.397Z,11.44
2022-11-17T07:06:11.383Z,11.43
2022-11-17T07:07:11.479Z,11.43
2022-11-17T07:08:11.425Z,11.43
2022-11-17T07:09:11.340Z,11.43
2022-11-17T07:10:11.330Z,11.43
2022-11-17T07:11:11.325Z,11.40
2022-11-17T07:12:11.313Z,11.43
2022-11-17T07:13:11.286Z,11.44
2022-11-17T07:14:11.260Z,11.46
2022-11-17T07:15:11.353Z,11.47
2022-11-17T07:16:11.245Z,11.54
2022-11-17T07:17:11.247Z,11.58
2022-11-17T07:18:11.214Z,11.65
2022-11-17T07:19:11.195Z,11.72
2022-11-17T07:20:11.192Z,11.78
2022-11-17T07:21:11.186Z,11.82
2022-11-17T07:22:11.151Z,11.86
2022-11-17T07:23:11.175Z,11.94
2022-11-17T07:24:11.114Z,11.98
2022-11-17T07:25:11.124Z,12.01
2022-11-17T07:26:11.107Z,12.09
2022-11-17T07:27:11.092Z,12.13
2022-11-17T07:28:11.063Z,12.14
2022-11-17T07:29:11.062Z,12.16
2022-11-17T07:30:11.067Z,12.21
2022-11-17T07:31:11.053Z,12.21
2022-11-17T07:32:11.034Z,12.23
2022-11-17T07:33:11.011Z,12.27
2022-11-17T07:34:10.984Z,12.28
2022-11-17T07:35:11.010Z,12.29
2022-11-17T07:36:10.954Z,12.29
2022-11-17T07:37:11.008Z,12.31
2022-11-17T07:38:10.941Z,12.34
2022-11-17T07:39:10.943Z,12.37
2022-11-17T07:40:10.905Z,12.37
2022-11-17T07:41:10.914Z,12.35
2022-11-17T07:42:10.895Z,12.35
2022-11-17T07:43:10.888Z,12.35
2022-11-17T07:44:10.846Z,12.38
2022-11-17T07:45:10.867Z,12.37
2022-11-17T07:46:10.848Z,12.37
2022-11-17T07:47:10.840Z,12.39
2022-11-17T07:48:10.794Z,12.42
2022-11-17T07:49:10.829Z,12.45
2022-11-17T07:50:10.763Z,12.46
2022-11-17T07:51:10.779Z,12.47
2022-11-17T07:52:10.741Z,12.47
2022-11-17T07:53:10.785Z,12.47
2022-11-17T07:54:10.733Z,12.47
2022-11-17T07:55:10.716Z,12.49
2022-11-17T07:56:10.685Z,12.49
2022-11-17T07:57:10.711Z,12.52
2022-11-17T07:58:10.717Z,12.52
2022-11-17T07:59:10.680Z,12.52
2022-11-17T08:00:10.672Z,12.50
2022-11-17T08:01:10.753Z,12.49
2022-11-17T08:02:10.602Z,12.52
2022-11-17T08:03:10.805Z,12.52
2022-11-17T08:04:10.687Z,12.52
2022-11-17T08:05:10.592Z,12.54
2022-11-17T08:06:10.568Z,12.57
2022-11-17T08:07:10.625Z,12.60
2022-11-17T08:08:10.536Z,12.65
2022-11-17T08:09:10.571Z,12.65
2022-11-17T08:10:10.537Z,12.64
2022-11-17T08:11:10.546Z,12.65
2022-11-17T08:12:10.478Z,12.64
2022-11-17T08:13:10.502Z,12.60
2022-11-17T08:14:10.443Z,12.60
2022-11-17T08:15:10.472Z,12.60
2022-11-17T08:16:10.458Z,12.62
2022-11-17T08:17:10.426Z,12.64
2022-11-17T08:18:10.389Z,12.65
2022-11-17T08:19:10.423Z,12.65
2022-11-17T08:20:10.381Z,12.70
2022-11-17T08:21:10.411Z,12.72
2022-11-17T08:22:10.427Z,12.77
2022-11-17T08:23:10.370Z,12.79
2022-11-17T08:24:10.316Z,12.83
2022-11-17T08:25:10.322Z,12.87
2022-11-17T08:26:10.309Z,12.90
2022-11-17T08:27:10.319Z,12.93
2022-11-17T08:28:10.281Z,12.96
2022-11-17T08:29:10.282Z,13.00
2022-11-17T08:30:10.378Z,13.01
2022-11-17T08:31:10.278Z,13.01
2022-11-17T08:32:10.221Z,13.01
2022-11-17T08:33:10.224Z,13.03
2022-11-17T08:34:10.191Z,13.04
2022-11-17T08:35:10.213Z,13.04
2022-11-17T08:36:10.203Z,13.03
2022-11-17T08:37:10.164Z,13.04
2022-11-17T08:38:10.134Z,13.04
2022-11-17T08:39:10.167Z,13.05
2022-11-17T08:40:10.101Z,13.07
2022-11-17T08:41:10.134Z,13.05
2022-11-17T08:42:10.099Z,13.08
2022-11-17T08:43:10.099Z,13.07
2022-11-17T08:44:10.070Z,13.08
2022-11-17T08:45:10.109Z,13.08
2022-11-17T08:46:10.015Z,13.08
2022-11-17T08:47:10.047Z,13.04
2022-11-17T08:48:10.005Z,13.04
2022-11-17T08:49:10.064Z,13.01
2022-11-17T08:50:09.983Z,12.97
2022-11-17T08:51:10.005Z,12.97
2022-11-17T08:52:09.951Z,12.95
2022-11-17T08:53:09.952Z,12.93
2022-11-17T08:54:09.939Z,12.96
2022-11-17T08:55:09.960Z,12.95
2022-11-17T08:56:09.886Z,12.95
2022-11-17T08:57:10.099Z,12.92
2022-11-17T08:58:09.850Z,12.93
2022-11-17T08:59:09.855Z,12.93
2022-11-17T09:00:09.862Z,12.90
2022-11-17T09:01:09.933Z,12.90
2022-11-17T09:02:09.850Z,12.90
2022-11-17T09:03:09.810Z,12.90
2022-11-17T09:04:09.846Z,12.90
2022-11-17T09:05:09.787Z,12.93
2022-11-17T09:06:09.765Z,12.95
2022-11-17T09:07:09.866Z,12.96
2022-11-17T09:08:43.277Z,12.97
2022-11-17T09:09:09.799Z,13.00
2022-11-17T09:10:09.720Z,12.96
2022-11-17T09:11:09.803Z,13.01
2022-11-17T09:12:09.699Z,13.01
2022-11-17T09:13:09.680Z,13.05
2022-11-17T09:14:09.660Z,13.07
2022-11-17T09:15:09.682Z,13.08
2022-11-17T09:16:09.596Z,13.10
2022-11-17T09:17:09.650Z,13.11
2022-11-17T09:18:09.579Z,13.11
2022-11-17T09:19:09.634Z,13.15
2022-11-17T09:20:09.534Z,13.17
2022-11-17T09:21:09.573Z,13.20
2022-11-17T09:22:09.526Z,13.20
2022-11-17T09:23:09.559Z,13.22
2022-11-17T09:24:09.524Z,13.20
2022-11-17T09:25:13.287Z,13.20
2022-11-17T09:26:09.526Z,13.19
2022-11-17T09:27:09.504Z,13.19
2022-11-17T09:28:09.445Z,13.15
2022-11-17T09:29:09.461Z,13.17
2022-11-17T09:30:09.427Z,13.15
2022-11-17T09:31:09.492Z,13.15
2022-11-17T09:32:09.675Z,13.14
2022-11-17T09:33:09.405Z,13.12
2022-11-17T09:34:09.426Z,13.11
2022-11-17T09:35:09.451Z,13.14
2022-11-17T09:36:09.363Z,13.15
2022-11-17T09:37:09.339Z,13.15
2022-11-17T09:38:09.310Z,13.14
2022-11-17T09:39:09.366Z,13.14
2022-11-17T09:40:09.287Z,13.14
2022-11-17T09:41:09.305Z,13.14
2022-11-17T09:42:09.262Z,13.19
2022-11-17T09:43:09.290Z,13.17
2022-11-17T09:44:09.255Z,13.19
2022-11-17T09:45:09.249Z,13.19
2022-11-17T09:46:09.213Z,13.15
2022-11-17T09:47:09.237Z,13.14
2022-11-17T09:48:34.058Z,13.11
2022-11-17T09:49:09.222Z,13.10
2022-11-17T09:50:09.155Z,13.11
2022-11-17T09:51:09.178Z,13.12
2022-11-17T09:52:09.180Z,13.11
2022-11-17T09:53:09.135Z,13.14
2022-11-17T09:54:09.122Z,13.12
2022-11-17T09:55:09.103Z,13.12
2022-11-17T09:56:09.087Z,13.15
2022-11-17T09:57:09.113Z,13.22
2022-11-17T09:58:09.071Z,13.28
2022-11-17T09:59:09.071Z,13.30
2022-11-17T10:00:09.024Z,13.33
2022-11-17T10:01:09.031Z,13.36
2022-11-17T10:02:09.069Z,13.36
2022-11-17T10:03:09.011Z,13.36
2022-11-17T10:04:08.997Z,13.33
2022-11-17T10:05:08.971Z,13.33
2022-11-17T10:06:08.964Z,13.33
2022-11-17T10:07:09.073Z,13.32
2022-11-17T10:08:08.959Z,13.29
2022-11-17T10:09:08.921Z,13.26
2022-11-17T10:10:08.923Z,13.25
2022-11-17T10:11:08.899Z,13.25
2022-11-17T10:12:08.886Z,13.28
2022-11-17T10:13:08.895Z,13.28
2022-11-17T10:14:08.879Z,13.29
2022-11-17T10:15:08.849Z,13.29
2022-11-17T10:16:08.818Z,13.26
2022-11-17T10:17:08.822Z,13.28
2022-11-17T10:18:08.786Z,13.29
2022-11-17T10:19:08.822Z,13.29
2022-11-17T10:20:08.757Z,13.28
2022-11-17T10:21:08.770Z,13.22
2022-11-17T10:22:08.747Z,13.17
2022-11-17T10:23:08.757Z,13.12
2022-11-17T10:24:08.693Z,13.07
2022-11-17T10:25:08.752Z,13.03
2022-11-17T10:26:08.712Z,12.97
2022-11-17T10:27:08.660Z,12.93
2022-11-17T10:28:08.684Z,12.87
2022-11-17T10:29:09.216Z,12.79
2022-11-17T10:30:08.672Z,12.77
2022-11-17T10:31:08.626Z,12.72
2022-11-17T10:32:08.623Z,12.70
2022-11-17T10:33:08.612Z,12.68
2022-11-17T10:34:08.597Z,12.65
2022-11-17T10:35:08.582Z,12.64
2022-11-17T10:36:08.592Z,12.62
2022-11-17T10:37:08.564Z,12.60
2022-11-17T10:38:08.550Z,12.62
2022-11-17T10:39:11.301Z,12.62
2022-11-17T10:40:08.528Z,12.60
2022-11-17T10:41:08.503Z,12.65
2022-11-17T10:42:08.496Z,12.67
2022-11-17T10:43:08.477Z,12.70
2022-11-17T10:44:08.459Z,12.72
2022-11-17T10:45:08.427Z,12.75
2022-11-17T10:46:08.437Z,12.79
2022-11-17T10:47:08.405Z,12.87
2022-11-17T10:48:08.429Z,12.92
2022-11-17T10:49:08.413Z,12.96
2022-11-17T10:50:08.393Z,13.01
2022-11-17T10:51:08.341Z,13.05
2022-11-17T10:52:08.367Z,13.07
2022-11-17T10:53:12.617Z,13.11
2022-11-17T10:54:08.364Z,13.15
2022-11-17T10:55:08.288Z,13.19
2022-11-17T10:56:08.306Z,13.20
2022-11-17T10:57:08.275Z,13.23
2022-11-17T10:58:08.293Z,13.25
2022-11-17T10:59:08.278Z,13.26
2022-11-17T11:00:08.252Z,13.25
2022-11-17T11:01:08.264Z,13.28
2022-11-17T11:02:08.220Z,13.26
2022-11-17T11:03:08.217Z,13.25
2022-11-17T11:04:08.214Z,13.26
2022-11-17T11:05:08.171Z,13.29
2022-11-17T11:06:10.775Z,13.32
2022-11-17T11:07:08.194Z,13.33
2022-11-17T11:08:08.150Z,13.36
2022-11-17T11:09:08.154Z,13.41
2022-11-17T11:10:08.147Z,13.41
2022-11-17T11:11:08.086Z,13.45
2022-11-17T11:12:08.091Z,13.46
2022-11-17T11:13:08.064Z,13.49
2022-11-17T11:14:08.059Z,13.52
2022-11-17T11:15:08.042Z,13.52
2022-11-17T11:16:08.064Z,13.55
2022-11-17T11:17:08.009Z,13.55
2022-11-17T11:18:08.417Z,13.54
2022-11-17T11:19:08.452Z,13.55
2022-11-17T11:20:08.025Z,13.54
2022-11-17T11:21:07.947Z,13.55
2022-11-17T11:22:07.954Z,13.57
2022-11-17T11:23:08.058Z,13.55
2022-11-17T11:24:07.942Z,13.59
2022-11-17T11:25:07.943Z,13.60
2022-11-17T11:26:07.924Z,13.62
2022-11-17T11:27:07.893Z,13.64
2022-11-17T11:28:07.885Z,13.67
2022-11-17T11:29:08.132Z,13.71
2022-11-17T11:30:07.869Z,13.77
2022-11-17T11:31:07.859Z,13.79
2022-11-17T11:32:07.856Z,13.84
2022-11-17T11:33:07.786Z,13.85
2022-11-17T11:34:07.807Z,13.87
2022-11-17T11:35:07.799Z,13.85
2022-11-17T11:36:07.768Z,13.82
2022-11-17T11:37:07.765Z,13.78
2022-11-17T11:38:07.756Z,13.73
2022-11-17T11:39:08.114Z,13.69
2022-11-17T11:40:07.765Z,13.67
2022-11-17T11:41:07.680Z,13.70
2022-11-17T11:42:08.427Z,13.73
2022-11-17T11:43:07.663Z,13.79
2022-11-17T11:44:07.692Z,13.84
2022-11-17T11:45:07.634Z,13.89
2022-11-17T11:46:07.678Z,13.89
2022-11-17T11:47:07.589Z,13.89
2022-11-17T11:48:07.581Z,13.89
2022-11-17T11:49:07.863Z,13.91
2022-11-17T11:50:07.593Z,13.88
2022-11-17T11:51:07.567Z,13.85
2022-11-17T11:52:07.536Z,13.85
2022-11-17T11:53:07.588Z,13.82
2022-11-17T11:54:07.539Z,13.82
2022-11-17T11:55:07.543Z,13.79
2022-11-17T11:56:07.513Z,13.77
2022-11-17T11:57:07.505Z,13.73
2022-11-17T11:58:07.460Z,13.71
2022-11-17T11:59:07.501Z,13.71
2022-11-17T12:00:07.438Z,13.69
2022-11-17T12:01:07.448Z,13.66
2022-11-17T12:02:07.496Z,13.64
2022-11-17T12:03:07.529Z,13.63
2022-11-17T12:04:07.420Z,13.66
2022-11-17T12:05:07.421Z,13.66
2022-11-17T12:06:07.390Z,13.66
2022-11-17T12:07:07.406Z,13.67
2022-11-17T12:08:10.538Z,13.69
2022-11-17T12:09:07.376Z,13.67
2022-11-17T12:10:07.345Z,13.66
2022-11-17T12:11:07.359Z,13.66
2022-11-17T12:12:07.291Z,13.66
2022-11-17T12:13:07.289Z,13.66
2022-11-17T12:14:07.242Z,13.66
2022-11-17T12:15:07.295Z,13.67
2022-11-17T12:16:07.228Z,13.67
2022-11-17T12:17:07.303Z,13.69
2022-11-17T12:18:07.187Z,13.70
2022-11-17T12:19:07.231Z,13.71
2022-11-17T12:20:10.874Z,13.73
2022-11-17T12:21:07.204Z,13.71
2022-11-17T12:22:07.169Z,13.73
2022-11-17T12:23:07.178Z,13.75
2022-11-17T12:24:07.114Z,13.75
2022-11-17T12:25:07.140Z,13.75
2022-11-17T12:26:07.112Z,13.78
2022-11-17T12:27:07.107Z,13.77
2022-11-17T12:28:07.070Z,13.78
2022-11-17T12:29:07.141Z,13.77
2022-11-17T12:30:07.029Z,13.75
2022-11-17T12:31:10.406Z,13.75
2022-11-17T12:32:07.010Z,13.73
2022-11-17T12:33:07.052Z,13.71
2022-11-17T12:34:06.981Z,13.70
2022-11-17T12:35:06.994Z,13.69
2022-11-17T12:36:06.976Z,13.67
2022-11-17T12:37:06.969Z,13.64
2022-11-17T12:38:06.946Z,13.63
2022-11-17T12:39:06.959Z,13.63
2022-11-17T12:40:06.905Z,13.63
2022-11-17T12:41:06.949Z,13.59
2022-11-17T12:42:06.923Z,13.59
2022-11-17T12:43:06.914Z,13.51
2022-11-17T12:44:06.866Z,13.39
2022-11-17T12:45:06.863Z,13.32
2022-11-17T12:46:06.850Z,13.25
2022-11-17T12:47:06.853Z,13.15
2022-11-17T12:48:32.456Z,13.08
2022-11-17T12:49:06.878Z,13.03
2022-11-17T12:50:06.772Z,13.00
2022-11-17T12:51:06.785Z,12.95
2022-11-17T12:52:06.761Z,12.95
2022-11-17T12:53:06.765Z,12.89
2022-11-17T12:54:06.758Z,12.79
2022-11-17T12:55:06.738Z,12.77
2022-11-17T12:56:06.707Z,12.74
2022-11-17T12:57:06.720Z,12.72
2022-11-17T12:58:10.536Z,12.70
2022-11-17T12:59:06.752Z,12.67
2022-11-17T13:00:06.633Z,12.64